createdAt,value
2023-05-09T00:00:12.903Z,97.22
2023-05-09T00:00:45.411Z,97.22
2023-05-09T00:01:17.831Z,97.22
2023-05-09T00:01:50.322Z,97.32
2023-05-09T00:02:22.774Z,97.32
2023-05-09T00:02:55.256Z,97.42
2023-05-09T00:03:27.639Z,97.52
2023-05-09T00:04:00.114Z,97.62
2023-05-09T00:04:32.557Z,97.72
2023-05-09T00:05:04.982Z,97.83
2023-05-09T00:05:37.432Z,97.83
2023-05-09T00:06:09.867Z,97.92
2023-05-09T00:06:42.289Z,97.92
2023-05-09T00:07:14.712Z,98.03
2023-05-09T00:07:47.137Z,98.03
2023-05-09T00:08:19.578Z,98.13
2023-05-09T00:08:52.059Z,98.13
2023-05-09T00:09:24.511Z,98.03
2023-05-09T00:09:57.026Z,98.13
2023-05-09T00:10:29.467Z,98.23
2023-05-09T00:11:01.901Z,98.28
2023-05-09T00:11:34.337Z,98.28
2023-05-09T00:12:06.777Z,98.38
2023-05-09T00:12:39.275Z,98.38
2023-05-09T00:13:11.741Z,98.38
2023-05-09T00:13:44.168Z,98.38
2023-05-09T00:14:16.578Z,98.28
2023-05-09T00:14:49.021Z,98.38
2023-05-09T00:15:21.462Z,98.48
2023-05-09T00:15:53.902Z,98.48
2023-05-09T00:16:26.396Z,98.48
2023-05-09T00:16:58.818Z,98.48
2023-05-09T00:17:31.317Z,98.48
2023-05-09T00:18:03.760Z,98.48
2023-05-09T00:18:36.188Z,98.58
2023-05-09T00:19:08.612Z,98.58
2023-05-09T00:19:41.037Z,98.58
2023-05-09T00:20:13.531Z,98.58
2023-05-09T00:20:45.994Z,98.58
2023-05-09T00:21:18.465Z,98.58
2023-05-09T00:21:50.873Z,98.68
2023-05-09T00:22:23.325Z,98.68
2023-05-09T00:22:55.760Z,98.79
2023-05-09T00:23:28.202Z,98.79
2023-05-09T00:24:00.644Z,98.68
2023-05-09T00:24:33.077Z,98.68
2023-05-09T00:25:05.554Z,98.68
2023-05-09T00:25:38.041Z,98.68
2023-05-09T00:26:10.490Z,98.68
2023-05-09T00:26:42.941Z,98.68
2023-05-09T00:27:15.373Z,98.58
2023-05-09T00:27:47.821Z,98.68
2023-05-09T00:28:20.253Z,98.68
2023-05-09T00:28:52.704Z,98.68
2023-05-09T00:29:25.137Z,98.68
2023-05-09T00:29:57.564Z,98.68
2023-05-09T00:30:29.985Z,98.68
2023-05-09T00:31:02.431Z,98.58
2023-05-09T00:31:34.919Z,98.48
2023-05-09T00:32:07.362Z,98.48
2023-05-09T00:32:39.802Z,98.58
2023-05-09T00:33:12.249Z,98.58
2023-05-09T00:33:44.650Z,98.63
2023-05-09T00:34:17.070Z,98.63
2023-05-09T00:34:49.529Z,98.63
2023-05-09T00:35:21.948Z,98.73
2023-05-09T00:35:54.373Z,98.63
2023-05-09T00:36:26.801Z,98.73
2023-05-09T00:36:59.267Z,98.73
2023-05-09T00:37:31.715Z,98.63
2023-05-09T00:38:04.176Z,98.83
2023-05-09T00:38:36.615Z,98.83
2023-05-09T00:39:09.049Z,98.83
2023-05-09T00:39:41.518Z,98.83
2023-05-09T00:40:13.971Z,98.73
2023-05-09T00:40:46.409Z,98.83
2023-05-09T00:41:18.853Z,98.83
2023-05-09T00:41:51.298Z,98.73
2023-05-09T00:42:23.753Z,98.73
2023-05-09T00:42:56.174Z,98.83
2023-05-09T00:43:28.605Z,99.04
2023-05-09T00:44:01.048Z,99.13
2023-05-09T00:44:33.517Z,99.13
2023-05-09T00:45:05.951Z,99.04
2023-05-09T00:45:38.392Z,99.13
2023-05-09T00:46:10.854Z,99.04
2023-05-09T00:46:43.283Z,99.04
2023-05-09T00:47:15.715Z,99.18
2023-05-09T00:47:48.176Z,99.28
2023-05-09T00:48:20.584Z,99.28
2023-05-09T00:48:53.024Z,99.33
2023-05-09T00:49:25.480Z,99.44
2023-05-09T00:49:57.890Z,99.33
2023-05-09T00:50:30.366Z,99.33
2023-05-09T00:51:02.819Z,99.33
2023-05-09T00:51:35.270Z,99.44
2023-05-09T00:52:07.712Z,99.44
2023-05-09T00:52:40.137Z,99.33
2023-05-09T00:53:12.575Z,99.38
2023-05-09T00:53:45.012Z,99.38
2023-05-09T00:54:17.432Z,99.38
2023-05-09T00:54:49.904Z,99.49
2023-05-09T00:55:22.375Z,99.54
2023-05-09T00:55:54.810Z,99.44
2023-05-09T00:56:27.230Z,99.49
2023-05-09T00:56:59.671Z,99.38
2023-05-09T00:57:32.124Z,99.38
2023-05-09T00:58:04.541Z,99.49
2023-05-09T00:58:36.977Z,99.49
2023-05-09T00:59:09.408Z,99.49
2023-05-09T00:59:41.856Z,99.49
2023-05-09T01:00:14.285Z,99.49
2023-05-09T01:00:46.777Z,99.49
2023-05-09T01:01:19.232Z,99.49
2023-05-09T01:01:51.727Z,99.54
2023-05-09T01:02:24.223Z,99.49
2023-05-09T01:02:56.765Z,99.38
2023-05-09T01:03:29.161Z,99.49
2023-05-09T01:04:01.488Z,99.38
2023-05-09T01:04:33.962Z,99.58
2023-05-09T01:05:06.405Z,99.49
2023-05-09T01:05:38.912Z,99.49
2023-05-09T01:06:11.393Z,99.49
2023-05-09T01:06:43.798Z,99.49
2023-05-09T01:07:16.261Z,99.49
2023-05-09T01:07:48.683Z,99.49
2023-05-09T01:08:21.123Z,99.58
2023-05-09T01:08:53.567Z,99.58
2023-05-09T01:09:26.005Z,99.58
2023-05-09T01:09:58.497Z,99.58
2023-05-09T01:10:31.036Z,99.69
2023-05-09T01:11:03.712Z,99.69
2023-05-09T01:11:36.175Z,99.69
2023-05-09T01:12:08.659Z,99.79
2023-05-09T01:12:41.142Z,99.79
2023-05-09T01:13:13.639Z,99.58
2023-05-09T01:13:46.127Z,99.58
2023-05-09T01:14:18.598Z,99.58
2023-05-09T01:14:51.061Z,99.58
2023-05-09T01:15:23.558Z,99.58
2023-05-09T01:15:56.067Z,99.69
2023-05-09T01:16:28.627Z,99.69
2023-05-09T01:17:01.060Z,99.79
2023-05-09T01:17:33.499Z,99.69
2023-05-09T01:18:05.962Z,99.79
2023-05-09T01:18:38.388Z,99.79
2023-05-09T01:19:10.889Z,99.79
2023-05-09T01:19:43.359Z,99.79
2023-05-09T01:20:15.817Z,99.89
2023-05-09T01:20:48.252Z,99.89
2023-05-09T01:21:20.698Z,99.89
2023-05-09T01:21:53.131Z,99.89
2023-05-09T01:22:25.616Z,99.79
2023-05-09T01:22:58.077Z,99.89
2023-05-09T01:23:30.578Z,99.89
2023-05-09T01:24:03.051Z,99.89
2023-05-09T01:24:35.538Z,99.99
2023-05-09T01:25:07.942Z,99.99
2023-05-09T01:25:40.415Z,99.99
2023-05-09T01:26:12.825Z,99.99
2023-05-09T01:26:45.318Z,99.99
2023-05-09T01:27:17.767Z,99.99
2023-05-09T01:27:50.250Z,99.99
2023-05-09T01:28:22.749Z,99.89
2023-05-09T01:28:55.226Z,99.99
2023-05-09T01:29:27.693Z,99.99
2023-05-09T01:30:00.155Z,99.89
2023-05-09T01:30:32.602Z,99.99
2023-05-09T01:31:05.049Z,99.99
2023-05-09T01:31:37.488Z,99.99
2023-05-09T01:32:09.928Z,99.89
2023-05-09T01:32:42.471Z,99.89
2023-05-09T01:33:14.928Z,99.89
2023-05-09T01:33:47.374Z,99.89
2023-05-09T01:34:19.822Z,99.89
2023-05-09T01:34:52.259Z,99.89
2023-05-09T01:35:24.698Z,99.89
2023-05-09T01:35:57.135Z,99.89
2023-05-09T01:36:29.616Z,99.89
2023-05-09T01:37:02.089Z,99.89
2023-05-09T01:37:34.510Z,99.79
2023-05-09T01:38:06.957Z,99.79
2023-05-09T01:38:39.390Z,99.89
2023-05-09T01:39:11.840Z,99.99
2023-05-09T01:39:44.309Z,99.99
2023-05-09T01:40:16.876Z,99.99
2023-05-09T01:40:49.282Z,99.99
2023-05-09T01:41:21.713Z,99.99
2023-05-09T01:41:54.157Z,99.99
2023-05-09T01:42:26.592Z,99.99
2023-05-09T01:42:59.054Z,99.99
2023-05-09T01:43:31.592Z,99.94
2023-05-09T01:44:04.031Z,99.94
2023-05-09T01:44:36.485Z,99.99
2023-05-09T01:45:08.925Z,99.99
2023-05-09T01:45:41.387Z,99.99
2023-05-09T01:46:13.870Z,99.99
2023-05-09T01:46:46.335Z,99.99
2023-05-09T01:47:18.758Z,99.99
2023-05-09T01:47:51.278Z,99.99
2023-05-09T01:48:23.704Z,99.99
2023-05-09T01:48:56.172Z,99.99
2023-05-09T01:49:28.611Z,99.99
2023-05-09T01:50:01.070Z,99.99
2023-05-09T01:50:33.498Z,99.99
2023-05-09T01:51:05.940Z,99.99
2023-05-09T01:51:38.391Z,99.99
2023-05-09T01:52:10.844Z,99.99
2023-05-09T01:52:43.299Z,99.99
2023-05-09T01:53:15.770Z,99.99
2023-05-09T01:53:48.215Z,99.99
2023-05-09T01:54:20.667Z,99.99
2023-05-09T01:54:53.126Z,99.99
2023-05-09T01:55:25.656Z,99.99
2023-05-09T01:55:58.103Z,99.99
2023-05-09T01:56:30.587Z,99.99
2023-05-09T01:57:03.037Z,99.99
2023-05-09T01:57:35.477Z,99.99
2023-05-09T01:58:07.957Z,99.99
2023-05-09T01:58:40.425Z,99.99
2023-05-09T01:59:12.876Z,99.99
2023-05-09T01:59:45.370Z,99.99
2023-05-09T02:00:17.812Z,99.99
2023-05-09T02:00:50.373Z,99.99
2023-05-09T02:01:22.802Z,99.99
2023-05-09T02:01:55.259Z,99.99
2023-05-09T02:02:27.709Z,99.99
2023-05-09T02:03:00.197Z,99.99
2023-05-09T02:03:32.578Z,99.99
2023-05-09T02:04:04.978Z,99.99
2023-05-09T02:04:37.431Z,99.99
2023-05-09T02:05:09.856Z,99.99
2023-05-09T02:05:42.279Z,99.99
2023-05-09T02:06:14.753Z,99.99
2023-05-09T02:06:47.169Z,99.99
2023-05-09T02:07:19.620Z,99.99
2023-05-09T02:07:52.032Z,99.99
2023-05-09T02:08:24.506Z,99.99
2023-05-09T02:08:57.027Z,99.99
2023-05-09T02:09:29.469Z,99.99
2023-05-09T02:10:01.906Z,99.99
2023-05-09T02:10:34.368Z,99.99
2023-05-09T02:11:06.820Z,99.99
2023-05-09T02:11:39.252Z,99.99
2023-05-09T02:12:11.739Z,99.99
2023-05-09T02:12:44.230Z,99.99
2023-05-09T02:13:16.700Z,99.99
2023-05-09T02:13:49.123Z,99.99
2023-05-09T02:14:21.552Z,99.99
2023-05-09T02:14:54.007Z,99.99
2023-05-09T02:15:26.466Z,99.99
2023-05-09T02:15:58.926Z,99.99
2023-05-09T02:16:31.418Z,99.99
2023-05-09T02:17:03.954Z,99.99
2023-05-09T02:17:36.368Z,99.99
2023-05-09T02:18:08.753Z,99.99
2023-05-09T02:18:41.196Z,99.99
2023-05-09T02:19:13.689Z,99.99
2023-05-09T02:19:46.158Z,99.99
2023-05-09T02:20:18.605Z,99.99
2023-05-09T02:20:51.050Z,99.99
2023-05-09T02:21:23.489Z,99.99
2023-05-09T02:21:55.933Z,99.99
2023-05-09T02:22:28.385Z,99.99
2023-05-09T02:23:00.792Z,99.99
2023-05-09T02:23:33.285Z,99.99
2023-05-09T02:24:05.853Z,99.99
2023-05-09T02:24:38.277Z,99.99
2023-05-09T02:25:10.729Z,99.99
2023-05-09T02:25:43.178Z,99.99
2023-05-09T02:26:15.610Z,99.99
2023-05-09T02:26:48.060Z,99.99
2023-05-09T02:27:20.514Z,99.99
2023-05-09T02:27:52.948Z,99.99
2023-05-09T02:28:25.414Z,99.99
2023-05-09T02:28:57.915Z,99.99
2023-05-09T02:29:30.401Z,99.99
2023-05-09T02:30:02.830Z,99.99
2023-05-09T02:30:35.293Z,99.99
2023-05-09T02:31:07.727Z,99.99
2023-05-09T02:31:40.255Z,99.99
2023-05-09T02:32:12.685Z,99.99
2023-05-09T02:32:45.176Z,99.99
2023-05-09T02:33:17.544Z,99.99
2023-05-09T02:33:50.032Z,99.99
2023-05-09T02:34:22.486Z,99.99
2023-05-09T02:34:54.956Z,99.99
2023-05-09T02:35:27.392Z,99.99
2023-05-09T02:35:59.807Z,99.99
2023-05-09T02:36:32.258Z,99.99
2023-05-09T02:37:04.783Z,99.99
2023-05-09T02:37:37.248Z,99.99
2023-05-09T02:38:09.730Z,99.99
2023-05-09T02:38:42.195Z,99.99
2023-05-09T02:39:14.720Z,99.99
2023-05-09T02:39:47.150Z,99.99
2023-05-09T02:40:19.621Z,99.99
2023-05-09T02:40:52.641Z,99.99
2023-05-09T02:41:24.513Z,99.99
2023-05-09T02:41:56.982Z,99.99
2023-05-09T02:42:29.405Z,99.99
2023-05-09T02:43:01.880Z,99.99
2023-05-09T02:43:34.385Z,99.99
2023-05-09T02:44:06.871Z,99.99
2023-05-09T02:44:39.314Z,99.99
2023-05-09T02:45:11.928Z,99.99
2023-05-09T02:45:44.288Z,99.99
2023-05-09T02:46:16.777Z,99.99
2023-05-09T02:46:49.154Z,99.99
2023-05-09T02:47:21.599Z,99.99
2023-05-09T02:47:54.103Z,99.99
2023-05-09T02:48:26.507Z,99.99
2023-05-09T02:48:58.919Z,99.99
2023-05-09T02:49:32.746Z,99.99
2023-05-09T02:50:03.834Z,99.99
2023-05-09T02:50:36.275Z,99.99
2023-05-09T02:51:08.702Z,99.99
2023-05-09T02:51:41.169Z,99.99
2023-05-09T02:52:13.584Z,99.99
2023-05-09T02:52:46.076Z,99.99
2023-05-09T02:53:18.500Z,99.99
2023-05-09T02:53:50.909Z,99.99
2023-05-09T02:54:23.354Z,99.99
2023-05-09T02:54:55.814Z,99.99
2023-05-09T02:55:28.272Z,99.99
2023-05-09T02:56:00.725Z,99.99
2023-05-09T02:56:33.188Z,99.99
2023-05-09T02:57:05.659Z,99.99
2023-05-09T02:57:38.097Z,99.99
2023-05-09T02:58:14.663Z,99.99
2023-05-09T02:58:43.041Z,99.99
2023-05-09T02:59:15.492Z,99.99
2023-05-09T02:59:47.940Z,99.99
2023-05-09T03:00:20.416Z,99.99
2023-05-09T03:00:52.914Z,99.99
2023-05-09T03:01:25.435Z,99.99
2023-05-09T03:01:57.847Z,99.99
2023-05-09T03:02:30.361Z,99.99
2023-05-09T03:03:02.765Z,99.99
2023-05-09T03:03:35.244Z,99.99
2023-05-09T03:04:07.570Z,99.99
2023-05-09T03:04:40.039Z,99.99
2023-05-09T03:05:12.616Z,99.99
2023-05-09T03:05:44.921Z,99.99
2023-05-09T03:06:17.380Z,99.99
2023-05-09T03:06:49.848Z,99.99
2023-05-09T03:07:22.278Z,99.99
2023-05-09T03:07:54.719Z,99.88
2023-05-09T03:08:27.152Z,99.88
2023-05-09T03:08:59.584Z,99.88
2023-05-09T03:09:32.037Z,99.88
2023-05-09T03:10:04.517Z,99.88
2023-05-09T03:10:36.960Z,99.93
2023-05-09T03:11:09.388Z,99.83
2023-05-09T03:11:41.822Z,99.93
2023-05-09T03:12:14.285Z,99.83
2023-05-09T03:12:46.754Z,99.83
2023-05-09T03:13:19.218Z,99.93
2023-05-09T03:13:51.578Z,99.93
2023-05-09T03:14:24.100Z,99.93
2023-05-09T03:14:56.606Z,99.93
2023-05-09T03:15:29.052Z,99.93
2023-05-09T03:16:01.506Z,99.93
2023-05-09T03:16:33.937Z,99.93
2023-05-09T03:17:06.381Z,99.93
2023-05-09T03:17:38.837Z,99.93
2023-05-09T03:18:11.352Z,99.93
2023-05-09T03:18:43.750Z,99.83
2023-05-09T03:19:16.176Z,99.83
2023-05-09T03:19:48.621Z,99.83
2023-05-09T03:20:21.057Z,99.83
2023-05-09T03:20:53.554Z,99.73
2023-05-09T03:21:25.980Z,99.83
2023-05-09T03:21:58.410Z,99.73
2023-05-09T03:22:30.843Z,99.73
2023-05-09T03:23:03.307Z,99.63
2023-05-09T03:23:35.751Z,99.63
2023-05-09T03:24:08.174Z,99.63
2023-05-09T03:24:40.644Z,99.63
2023-05-09T03:25:13.339Z,99.63
2023-05-09T03:25:45.524Z,99.52
2023-05-09T03:26:17.965Z,99.42
2023-05-09T03:26:50.483Z,99.42
2023-05-09T03:27:22.928Z,99.32
2023-05-09T03:27:55.366Z,99.32
2023-05-09T03:28:27.823Z,99.27
2023-05-09T03:29:00.346Z,99.17
2023-05-09T03:29:32.841Z,99.17
2023-05-09T03:30:05.277Z,99.07
2023-05-09T03:30:37.724Z,99.07
2023-05-09T03:31:10.205Z,99.07
2023-05-09T03:31:42.602Z,98.97
2023-05-09T03:32:15.374Z,98.97
2023-05-09T03:32:47.572Z,98.86
2023-05-09T03:33:19.968Z,98.86
2023-05-09T03:33:52.412Z,98.86
2023-05-09T03:34:24.848Z,98.86
2023-05-09T03:34:57.297Z,98.86
2023-05-09T03:35:29.746Z,98.77
2023-05-09T03:36:02.197Z,98.77
2023-05-09T03:36:34.660Z,98.77
2023-05-09T03:37:07.103Z,98.77
2023-05-09T03:37:39.575Z,98.66
2023-05-09T03:38:12.110Z,98.66
2023-05-09T03:38:44.591Z,98.66
2023-05-09T03:39:17.098Z,98.66
2023-05-09T03:39:49.561Z,98.66
2023-05-09T03:40:22.025Z,98.66
2023-05-09T03:40:54.491Z,98.56
2023-05-09T03:41:26.948Z,98.56
2023-05-09T03:41:59.378Z,98.56
2023-05-09T03:42:31.890Z,98.66
2023-05-09T03:43:04.381Z,98.56
2023-05-09T03:43:36.856Z,98.56
2023-05-09T03:44:09.305Z,98.56
2023-05-09T03:44:41.754Z,98.56
2023-05-09T03:45:14.348Z,98.46
2023-05-09T03:45:46.679Z,98.46
2023-05-09T03:46:19.192Z,98.46
2023-05-09T03:46:51.725Z,98.46
2023-05-09T03:47:24.119Z,98.46
2023-05-09T03:47:56.584Z,98.46
2023-05-09T03:48:29.028Z,98.46
2023-05-09T03:49:01.492Z,98.46
2023-05-09T03:49:33.929Z,98.46
2023-05-09T03:50:06.410Z,98.36
2023-05-09T03:50:38.865Z,98.36
2023-05-09T03:51:11.338Z,98.36
2023-05-09T03:51:43.793Z,98.46
2023-05-09T03:52:16.241Z,98.46
2023-05-09T03:52:48.760Z,98.46
2023-05-09T03:53:21.232Z,98.46
2023-05-09T03:53:53.679Z,98.46
2023-05-09T03:54:26.148Z,98.36
2023-05-09T03:54:58.617Z,98.26
2023-05-09T03:55:31.073Z,98.26
2023-05-09T03:56:03.555Z,98.36
2023-05-09T03:56:36.011Z,98.36
2023-05-09T03:57:08.437Z,98.26
2023-05-09T03:57:40.867Z,98.26
2023-05-09T03:58:13.322Z,98.26
2023-05-09T03:58:45.785Z,98.26
2023-05-09T03:59:18.269Z,98.26
2023-05-09T03:59:50.707Z,98.16
2023-05-09T04:00:23.181Z,98.05
2023-05-09T04:00:55.614Z,98.05
2023-05-09T04:01:28.105Z,98.05
2023-05-09T04:02:00.616Z,98.05
2023-05-09T04:02:33.169Z,97.96
2023-05-09T04:03:05.546Z,97.85
2023-05-09T04:03:38.059Z,97.85
2023-05-09T04:04:10.393Z,97.85
2023-05-09T04:04:42.806Z,97.85
2023-05-09T04:05:15.509Z,97.75
2023-05-09T04:05:47.724Z,97.75
2023-05-09T04:06:20.155Z,97.75
2023-05-09T04:06:52.640Z,97.65
2023-05-09T04:07:25.096Z,97.55
2023-05-09T04:07:57.532Z,97.44
2023-05-09T04:08:29.962Z,97.44
2023-05-09T04:09:02.422Z,97.44
2023-05-09T04:09:34.901Z,97.34
2023-05-09T04:10:07.338Z,97.34
2023-05-09T04:10:39.817Z,97.20
2023-05-09T04:11:12.299Z,97.24
2023-05-09T04:11:44.784Z,97.09
2023-05-09T04:12:17.245Z,97.09
2023-05-09T04:12:49.741Z,97.09
2023-05-09T04:13:22.143Z,97.09
2023-05-09T04:13:54.612Z,97.09
2023-05-09T04:14:27.073Z,96.99
2023-05-09T04:14:59.502Z,96.99
2023-05-09T04:15:31.986Z,96.99
2023-05-09T04:16:04.448Z,96.89
2023-05-09T04:16:36.922Z,96.89
2023-05-09T04:17:09.525Z,96.79
2023-05-09T04:17:41.874Z,96.69
2023-05-09T04:18:14.314Z,96.69
2023-05-09T04:18:46.770Z,96.69
2023-05-09T04:19:19.225Z,96.48
2023-05-09T04:19:51.715Z,96.48
2023-05-09T04:20:24.180Z,96.38
2023-05-09T04:20:56.643Z,96.38
2023-05-09T04:21:29.089Z,96.38
2023-05-09T04:22:01.548Z,96.28
2023-05-09T04:22:33.980Z,96.18
2023-05-09T04:23:06.476Z,96.18
2023-05-09T04:23:38.883Z,96.08
2023-05-09T04:24:11.341Z,96.18
2023-05-09T04:24:43.825Z,96.18
2023-05-09T04:25:16.452Z,96.08
2023-05-09T04:25:48.773Z,95.98
2023-05-09T04:26:21.229Z,95.87
2023-05-09T04:26:53.655Z,95.78
2023-05-09T04:27:26.086Z,95.87
2023-05-09T04:27:58.556Z,95.78
2023-05-09T04:28:31.005Z,95.78
2023-05-09T04:29:03.468Z,95.83
2023-05-09T04:29:35.930Z,95.94
2023-05-09T04:30:08.392Z,95.94
2023-05-09T04:30:40.845Z,95.94
2023-05-09T04:31:13.354Z,95.94
2023-05-09T04:31:46.029Z,95.73
2023-05-09T04:32:18.308Z,95.73
2023-05-09T04:32:50.757Z,95.83
2023-05-09T04:33:23.159Z,95.83
2023-05-09T04:33:55.647Z,95.83
2023-05-09T04:34:28.099Z,95.73
2023-05-09T04:35:00.545Z,95.63
2023-05-09T04:35:33.010Z,95.42
2023-05-09T04:36:05.450Z,95.32
2023-05-09T04:36:37.889Z,95.22
2023-05-09T04:37:10.351Z,95.12
2023-05-09T04:37:42.779Z,95.22
2023-05-09T04:38:15.223Z,95.32
2023-05-09T04:38:47.674Z,95.32
2023-05-09T04:39:20.114Z,95.32
2023-05-09T04:39:52.572Z,95.22
2023-05-09T04:40:26.764Z,95.02
2023-05-09T04:40:57.537Z,95.02
2023-05-09T04:41:29.983Z,95.12
2023-05-09T04:42:02.408Z,95.12
2023-05-09T04:42:34.880Z,95.02
2023-05-09T04:43:07.330Z,94.92
2023-05-09T04:43:39.803Z,94.82
2023-05-09T04:44:12.297Z,94.71
2023-05-09T04:44:44.748Z,94.71
2023-05-09T04:45:17.429Z,94.61
2023-05-09T04:45:49.651Z,94.61
2023-05-09T04:46:24.260Z,94.61
2023-05-09T04:46:54.505Z,94.71
2023-05-09T04:47:26.995Z,94.82
2023-05-09T04:47:59.449Z,94.92
2023-05-09T04:48:31.814Z,94.82
2023-05-09T04:49:04.311Z,94.71
2023-05-09T04:49:36.744Z,94.61
2023-05-09T04:50:09.198Z,94.61
2023-05-09T04:50:41.625Z,94.51
2023-05-09T04:51:14.080Z,94.51
2023-05-09T04:51:46.524Z,94.37
2023-05-09T04:52:18.958Z,94.26
2023-05-09T04:52:51.412Z,94.26
2023-05-09T04:53:23.844Z,94.26
2023-05-09T04:53:56.291Z,94.17
2023-05-09T04:54:28.733Z,93.96
2023-05-09T04:55:01.189Z,93.96
2023-05-09T04:55:33.629Z,93.96
2023-05-09T04:56:06.063Z,93.96
2023-05-09T04:56:38.560Z,93.86
2023-05-09T04:57:17.998Z,93.76
2023-05-09T04:57:43.509Z,93.86
2023-05-09T04:58:15.955Z,93.86
2023-05-09T04:58:48.387Z,93.86
2023-05-09T04:59:20.849Z,93.76
2023-05-09T04:59:53.280Z,93.55
2023-05-09T05:00:25.797Z,93.55
2023-05-09T05:00:58.214Z,93.45
2023-05-09T05:01:30.710Z,93.45
2023-05-09T05:02:03.302Z,93.45
2023-05-09T05:02:35.637Z,93.45
2023-05-09T05:03:08.111Z,93.35
2023-05-09T05:03:40.462Z,93.45
2023-05-09T05:04:12.953Z,93.35
2023-05-09T05:04:45.434Z,93.25
2023-05-09T05:05:17.851Z,93.25
2023-05-09T05:05:50.384Z,93.15
2023-05-09T05:06:22.733Z,93.05
2023-05-09T05:06:55.185Z,93.05
2023-05-09T05:07:27.657Z,93.05
2023-05-09T05:08:00.123Z,93.00
2023-05-09T05:08:32.556Z,93.00
2023-05-09T05:09:05.043Z,92.80
2023-05-09T05:09:37.473Z,92.80
2023-05-09T05:10:09.932Z,92.80
2023-05-09T05:10:42.372Z,92.80
2023-05-09T05:11:14.839Z,92.90
2023-05-09T05:11:58.402Z,92.80
2023-05-09T05:12:19.773Z,92.70
2023-05-09T05:12:52.260Z,92.60
2023-05-09T05:13:24.780Z,92.60
2023-05-09T05:13:57.191Z,92.49
2023-05-09T05:14:29.645Z,92.35
2023-05-09T05:15:02.122Z,92.35
2023-05-09T05:15:34.567Z,92.14
2023-05-09T05:16:07.069Z,92.14
2023-05-09T05:16:39.574Z,92.14
2023-05-09T05:17:11.997Z,92.25
2023-05-09T05:17:44.513Z,92.05
2023-05-09T05:18:16.949Z,91.85
2023-05-09T05:18:49.426Z,91.64
2023-05-09T05:19:21.931Z,91.39
2023-05-09T05:19:54.401Z,91.39
2023-05-09T05:20:26.827Z,90.89
2023-05-09T05:20:59.274Z,90.99
2023-05-09T05:21:31.698Z,90.99
2023-05-09T05:22:04.170Z,91.09
2023-05-09T05:22:36.630Z,90.99
2023-05-09T05:23:09.101Z,90.69
2023-05-09T05:23:41.562Z,90.58
2023-05-09T05:24:14.074Z,90.69
2023-05-09T05:24:46.565Z,90.79
2023-05-09T05:25:19.046Z,90.79
2023-05-09T05:25:51.513Z,90.79
2023-05-09T05:26:23.996Z,90.58
2023-05-09T05:26:56.508Z,90.89
2023-05-09T05:27:28.993Z,90.89
2023-05-09T05:28:10.968Z,90.69
2023-05-09T05:28:49.420Z,90.18
2023-05-09T05:29:21.879Z,90.14
2023-05-09T05:29:54.402Z,89.94
2023-05-09T05:30:26.868Z,89.94
2023-05-09T05:30:59.433Z,89.83
2023-05-09T05:31:32.030Z,89.73
2023-05-09T05:32:04.531Z,89.83
2023-05-09T05:32:37.038Z,89.83
2023-05-09T05:33:09.522Z,89.63
2023-05-09T05:33:42.003Z,89.63
2023-05-09T05:34:14.465Z,89.53
2023-05-09T05:34:46.947Z,89.53
2023-05-09T05:35:19.427Z,89.53
2023-05-09T05:35:51.868Z,89.32
2023-05-09T05:36:24.366Z,89.23
2023-05-09T05:36:56.858Z,89.43
2023-05-09T05:37:29.306Z,89.43
2023-05-09T05:38:01.756Z,89.53
2023-05-09T05:38:34.223Z,89.23
2023-05-09T05:39:06.689Z,89.32
2023-05-09T05:39:39.179Z,89.43
2023-05-09T05:40:11.643Z,89.53
2023-05-09T05:40:44.144Z,89.53
2023-05-09T05:41:16.615Z,89.53
2023-05-09T05:41:49.050Z,89.43
2023-05-09T05:42:21.537Z,89.43
2023-05-09T05:42:53.950Z,89.32
2023-05-09T05:43:26.445Z,89.43
2023-05-09T05:43:58.908Z,89.53
2023-05-09T05:44:31.360Z,89.63
2023-05-09T05:45:03.812Z,89.73
2023-05-09T05:45:36.350Z,89.73
2023-05-09T05:46:08.812Z,89.83
2023-05-09T05:46:41.234Z,89.94
2023-05-09T05:47:13.671Z,89.83
2023-05-09T05:47:46.141Z,89.73
2023-05-09T05:48:18.589Z,89.73
2023-05-09T05:48:51.023Z,89.48
2023-05-09T05:49:23.464Z,89.12
2023-05-09T05:50:03.998Z,89.32
2023-05-09T05:50:43.503Z,89.43
2023-05-09T05:51:15.963Z,89.43
2023-05-09T05:51:55.440Z,89.43
2023-05-09T05:52:27.864Z,89.43
2023-05-09T05:53:07.827Z,89.32
2023-05-09T05:53:40.280Z,89.32
2023-05-09T05:54:12.693Z,89.32
2023-05-09T05:54:45.134Z,89.43
2023-05-09T05:55:17.798Z,89.63
2023-05-09T05:55:50.029Z,89.83
2023-05-09T05:56:22.487Z,89.73
2023-05-09T05:56:54.916Z,89.73
2023-05-09T05:57:27.338Z,89.53
2023-05-09T05:57:59.770Z,89.53
2023-05-09T05:58:32.182Z,89.73
2023-05-09T05:59:04.595Z,89.83
2023-05-09T05:59:37.000Z,90.03
2023-05-09T06:00:09.449Z,90.03
2023-05-09T06:00:41.891Z,90.14
2023-05-09T06:01:14.321Z,90.03
2023-05-09T06:01:46.797Z,89.94
2023-05-09T06:02:19.249Z,89.94
2023-05-09T06:02:51.806Z,90.03
2023-05-09T06:03:24.205Z,90.03
2023-05-09T06:03:56.607Z,89.73
2023-05-09T06:04:28.986Z,89.63
2023-05-09T06:05:01.402Z,89.53
2023-05-09T06:05:33.835Z,89.53
2023-05-09T06:06:06.388Z,89.69
2023-05-09T06:06:38.735Z,89.69
2023-05-09T06:07:11.154Z,89.79
2023-05-09T06:07:43.601Z,89.59
2023-05-09T06:08:16.034Z,89.28
2023-05-09T06:08:48.552Z,89.28
2023-05-09T06:09:21.001Z,89.48
2023-05-09T06:09:53.431Z,89.28
2023-05-09T06:10:25.869Z,89.39
2023-05-09T06:10:58.265Z,89.39
2023-05-09T06:11:30.706Z,89.24
2023-05-09T06:12:03.136Z,88.84
2023-05-09T06:12:35.591Z,88.74
2023-05-09T06:13:08.059Z,88.84
2023-05-09T06:13:40.512Z,88.84
2023-05-09T06:14:12.952Z,88.84
2023-05-09T06:14:45.352Z,88.84
2023-05-09T06:15:17.878Z,88.74
2023-05-09T06:15:50.219Z,88.79
2023-05-09T06:16:22.666Z,88.49
2023-05-09T06:16:55.122Z,88.29
2023-05-09T06:17:27.568Z,88.29
2023-05-09T06:18:00.025Z,88.19
2023-05-09T06:18:32.431Z,87.99
2023-05-09T06:19:04.878Z,88.09
2023-05-09T06:19:37.304Z,87.99
2023-05-09T06:20:09.766Z,87.88
2023-05-09T06:20:42.194Z,87.84
2023-05-09T06:21:14.638Z,87.44
2023-05-09T06:21:47.062Z,87.54
2023-05-09T06:22:19.474Z,87.44
2023-05-09T06:22:51.938Z,87.54
2023-05-09T06:23:24.451Z,87.24
2023-05-09T06:24:35.874Z,86.93
2023-05-09T06:25:01.767Z,87.04
2023-05-09T06:25:34.215Z,87.24
2023-05-09T06:26:06.630Z,87.34
2023-05-09T06:26:39.086Z,87.34
2023-05-09T06:27:11.550Z,87.24
2023-05-09T06:27:43.989Z,87.04
2023-05-09T06:28:16.471Z,87.24
2023-05-09T06:28:48.860Z,87.24
2023-05-09T06:29:21.292Z,87.24
2023-05-09T06:29:53.734Z,87.44
2023-05-09T06:30:28.110Z,87.34
2023-05-09T06:30:58.621Z,87.54
2023-05-09T06:31:31.077Z,87.54
2023-05-09T06:32:03.437Z,87.64
2023-05-09T06:32:35.886Z,87.64
2023-05-09T06:33:08.328Z,87.64
2023-05-09T06:33:40.779Z,87.64
2023-05-09T06:34:13.220Z,87.74
2023-05-09T06:34:45.670Z,87.64
2023-05-09T06:35:18.108Z,87.74
2023-05-09T06:35:50.542Z,87.74
2023-05-09T06:36:22.977Z,87.74
2023-05-09T06:36:55.426Z,87.84
2023-05-09T06:37:27.862Z,87.95
2023-05-09T06:38:00.294Z,87.74
2023-05-09T06:38:32.702Z,87.54
2023-05-09T06:39:05.139Z,87.19
2023-05-09T06:39:37.557Z,87.19
2023-05-09T06:40:10.010Z,87.10
2023-05-09T06:40:42.455Z,86.90
2023-05-09T06:41:14.903Z,86.90
2023-05-09T06:41:47.341Z,86.69
2023-05-09T06:42:19.773Z,86.45
2023-05-09T06:42:52.202Z,86.25
2023-05-09T06:43:24.664Z,85.94
2023-05-09T06:43:57.114Z,85.84
2023-05-09T06:44:29.558Z,86.04
2023-05-09T06:45:02.009Z,85.94
2023-05-09T06:45:34.426Z,85.94
2023-05-09T06:46:06.910Z,85.74
2023-05-09T06:46:39.446Z,85.54
2023-05-09T06:47:11.798Z,85.84
2023-05-09T06:47:44.276Z,85.94
2023-05-09T06:48:16.684Z,85.74
2023-05-09T06:48:49.152Z,85.64
2023-05-09T06:49:21.554Z,85.74
2023-05-09T06:49:54.011Z,85.54
2023-05-09T06:50:26.592Z,85.64
2023-05-09T06:50:58.920Z,85.74
2023-05-09T06:51:31.378Z,85.94
2023-05-09T06:52:03.811Z,86.04
2023-05-09T06:52:36.272Z,86.15
2023-05-09T06:53:08.744Z,86.15
2023-05-09T06:53:41.224Z,85.94
2023-05-09T06:54:13.715Z,85.54
2023-05-09T06:54:46.130Z,85.64
2023-05-09T06:55:18.581Z,85.90
2023-05-09T06:55:50.999Z,85.50
2023-05-09T06:56:23.471Z,85.70
2023-05-09T06:56:55.862Z,85.50
2023-05-09T06:57:28.324Z,85.10
2023-05-09T06:58:00.765Z,84.79
2023-05-09T06:58:33.185Z,84.69
2023-05-09T06:59:05.629Z,84.79